Main page
METAR-TAF:

METAR-TAF

Airports :

Qurghonteppa International Airport

Qurghonteppa, Tajikistan

latitude: 37-51-44N, longitude: 068-51-46E, elevation: 449 m

Current weather observation

The report was made 26 minutes ago, at 05:30 UTC
Wind 4 kt from the West/Southwest, varying between South/Southwest and West
Temperature 30°C
Humidity 24%
Pressure 1011 hPa
Visibility 10 km or more

METAR: UTDT 250530Z 25002MPS 210V280 9999 NSC 30/07 Q1011 R35/CLRD70 RMK QFE719/0958

Time: 10:56 (05:56 UTC)

Forecast

The report was made 2 hours and 56 minutes ago, at 03:00 UTC
Forecast valid from 25 at 04 UTC to 25 at 13 UTC
Wind 4 kt from variable directions
Visibility: 6000 m
Few clouds at a height of 6600 ft
Scattered clouds at a height of 13000 ft

TAF: UTDT 250300Z 2504/2513 VRB02MPS 6000 FEW066 SCT130

Weather observations and forecasts of more than 4000 airports (METAR and TAF reports).

The available stations are represented by yellow and red dots on the map.

Hover mouse over dot to see the name of the station.

Then click to see weather observations and forecasts.

To change the map : click on the green buttons with a black cross to zoom in, on the green button with a dash to zoom out, or on the green arrows for adjacent maps.


METAR-TAF: